createdAt,value
2018-03-03T00:00:35.655Z,50.3
2018-03-03T00:01:25.521Z,50.3
2018-03-03T00:02:14.699Z,50.3
2018-03-03T00:03:05.438Z,50.3
2018-03-03T00:03:55.030Z,50.2
2018-03-03T00:04:45.640Z,50.2
2018-03-03T00:05:36.011Z,50.2
2018-03-03T00:06:25.165Z,50.2
2018-03-03T00:07:15.520Z,50.2
2018-03-03T00:08:05.912Z,50.2
2018-03-03T00:08:55.657Z,50.2
2018-03-03T00:09:45.211Z,50.2
2018-03-03T00:10:35.362Z,50.2
2018-03-03T00:11:25.537Z,50.2
2018-03-03T00:12:15.857Z,50.2
2018-03-03T00:13:05.648Z,50.1
2018-03-03T00:13:55.783Z,50.1
2018-03-03T00:14:46.336Z,50.1
2018-03-03T00:15:36.669Z,50.1
2018-03-03T00:16:26.103Z,50.1
2018-03-03T00:17:16.300Z,50.1
2018-03-03T00:18:06.584Z,50.1
2018-03-03T00:18:55.656Z,50.1
2018-03-03T00:19:45.904Z,50.1
2018-03-03T00:20:36.526Z,50.1
2018-03-03T00:21:25.822Z,50.1
2018-03-03T00:22:16.493Z,50.1
2018-03-03T00:23:05.824Z,50.1
2018-03-03T00:23:57.234Z,50.1
2018-03-03T00:24:45.905Z,50.1
2018-03-03T00:25:37.232Z,50.1
2018-03-03T00:26:26.416Z,50.1
2018-03-03T00:27:16.793Z,50.1
2018-03-03T00:28:06.860Z,50.1
2018-03-03T00:28:56.537Z,50.1
2018-03-03T00:29:46.953Z,50.1
2018-03-03T00:30:36.860Z,50
2018-03-03T00:31:26.890Z,50
2018-03-03T00:32:16.920Z,50
2018-03-03T00:33:06.578Z,50
2018-03-03T00:33:57.607Z,50
2018-03-03T00:34:47.007Z,50
2018-03-03T00:35:37.174Z,50
2018-03-03T00:36:27.511Z,50
2018-03-03T00:37:17.672Z,49.9
2018-03-03T00:38:07.320Z,50
2018-03-03T00:38:58.277Z,50
2018-03-03T00:39:46.961Z,50
2018-03-03T00:40:37.018Z,49.9
2018-03-03T00:41:27.961Z,49.9
2018-03-03T00:42:17.510Z,49.9
2018-03-03T00:43:07.260Z,49.9
2018-03-03T00:43:57.842Z,49.9
2018-03-03T00:44:48.383Z,49.9
2018-03-03T00:45:38.127Z,49.9
2018-03-03T00:46:28.168Z,49.9
2018-03-03T00:47:18.498Z,49.9
2018-03-03T00:48:09.457Z,49.9
2018-03-03T00:48:58.419Z,49.9
2018-03-03T00:49:48.581Z,49.9
2018-03-03T00:50:38.447Z,49.9
2018-03-03T00:51:28.179Z,49.9
2018-03-03T00:52:18.108Z,49.9
2018-03-03T00:53:08.224Z,49.9
2018-03-03T00:53:58.947Z,49.9
2018-03-03T00:54:48.532Z,49.9
2018-03-03T00:55:39.083Z,49.8
2018-03-03T00:56:29.512Z,49.8
2018-03-03T00:57:18.534Z,49.8
2018-03-03T00:58:09.392Z,49.9
2018-03-03T00:58:59.094Z,49.8
2018-03-03T00:59:48.966Z,49.8
2018-03-03T01:00:39.703Z,49.8
2018-03-03T01:01:29.286Z,49.8
2018-03-03T01:02:19.561Z,49.8
2018-03-03T01:03:09.299Z,49.8
2018-03-03T01:03:59.749Z,49.8
2018-03-03T01:04:49.408Z,49.8
2018-03-03T01:05:40.349Z,49.8
2018-03-03T01:06:29.889Z,49.8
2018-03-03T01:07:19.850Z,49.8
2018-03-03T01:08:10.029Z,49.8
2018-03-03T01:08:59.776Z,49.8
2018-03-03T01:09:50.433Z,49.8
2018-03-03T01:10:39.869Z,49.8
2018-03-03T01:11:30.725Z,49.8
2018-03-03T01:12:20.461Z,49.8
2018-03-03T01:13:09.695Z,49.7
2018-03-03T01:14:00.410Z,49.7
2018-03-03T01:14:50.451Z,49.7
2018-03-03T01:15:40.326Z,49.7
2018-03-03T01:16:30.300Z,49.7
2018-03-03T01:17:20.052Z,49.7
2018-03-03T01:18:09.926Z,49.7
2018-03-03T01:19:00.666Z,49.7
2018-03-03T01:19:50.609Z,49.7
2018-03-03T01:20:41.308Z,49.6
2018-03-03T01:21:30.820Z,49.7
2018-03-03T01:22:19.893Z,49.6
2018-03-03T01:23:10.151Z,49.6
2018-03-03T01:24:00.715Z,49.6
2018-03-03T01:24:49.595Z,49.6
2018-03-03T01:25:41.095Z,49.6
2018-03-03T01:26:31.013Z,49.6
2018-03-03T01:27:21.230Z,49.6
2018-03-03T01:28:11.112Z,49.6
2018-03-03T01:29:01.325Z,49.6
2018-03-03T01:29:51.102Z,49.6
2018-03-03T01:30:42.002Z,49.6
2018-03-03T01:31:31.584Z,49.6
2018-03-03T01:32:20.860Z,49.6
2018-03-03T01:33:11.036Z,49.6
2018-03-03T01:34:01.670Z,49.6
2018-03-03T01:34:52.034Z,49.6
2018-03-03T01:35:40.792Z,49.6
2018-03-03T01:36:32.431Z,49.6
2018-03-03T01:37:21.247Z,49.5
2018-03-03T01:38:10.753Z,49.5
2018-03-03T01:39:01.734Z,49.5
2018-03-03T01:39:52.448Z,49.5
2018-03-03T01:40:41.834Z,49.5
2018-03-03T01:41:31.892Z,49.5
2018-03-03T01:42:22.518Z,49.5
2018-03-03T01:43:11.589Z,49.5
2018-03-03T01:44:01.570Z,49.5
2018-03-03T01:44:51.797Z,49.5
2018-03-03T01:45:42.430Z,49.4
2018-03-03T01:46:32.530Z,49.4
2018-03-03T01:47:22.647Z,49.5
2018-03-03T01:48:12.659Z,49.4
2018-03-03T01:49:02.998Z,49.4
2018-03-03T01:49:52.716Z,49.4
2018-03-03T01:50:42.792Z,49.4
2018-03-03T01:51:32.879Z,49.4
2018-03-03T01:52:22.986Z,49.4
2018-03-03T01:53:12.479Z,49.4
2018-03-03T01:54:02.807Z,49.4
2018-03-03T01:54:53.040Z,49.4
2018-03-03T01:55:43.381Z,49.4
2018-03-03T01:56:33.053Z,49.4
2018-03-03T01:57:22.841Z,49.4
2018-03-03T01:58:13.450Z,49.4
2018-03-03T01:59:03.143Z,49.4
2018-03-03T01:59:52.915Z,49.4
2018-03-03T02:00:43.821Z,49.4
2018-03-03T02:01:34.078Z,49.4
2018-03-03T02:02:22.899Z,49.3
2018-03-03T02:03:13.135Z,49.4
2018-03-03T02:04:03.798Z,49.3
2018-03-03T02:04:53.543Z,49.3
2018-03-03T02:05:43.635Z,49.3
2018-03-03T02:06:33.628Z,49.3
2018-03-03T02:07:24.407Z,49.3
2018-03-03T02:08:13.763Z,49.3
2018-03-03T02:09:04.070Z,49.3
2018-03-03T02:09:54.083Z,49.3
2018-03-03T02:10:44.425Z,49.3
2018-03-03T02:11:33.975Z,49.3
2018-03-03T02:12:23.962Z,49.3
2018-03-03T02:13:13.806Z,49.3
2018-03-03T02:14:04.200Z,49.3
2018-03-03T02:14:55.107Z,49.3
2018-03-03T02:15:44.043Z,49.2
2018-03-03T02:16:34.515Z,49.2
2018-03-03T02:17:24.373Z,49.3
2018-03-03T02:18:14.375Z,49.3
2018-03-03T02:19:04.758Z,49.2
2018-03-03T02:19:54.003Z,49.2
2018-03-03T02:20:45.166Z,49.2
2018-03-03T02:21:35.145Z,49.2
2018-03-03T02:22:24.476Z,49.2
2018-03-03T02:23:14.162Z,49.2
2018-03-03T02:24:04.278Z,49.2
2018-03-03T02:24:54.817Z,49.1
2018-03-03T02:25:44.647Z,49.2
2018-03-03T02:26:34.522Z,49.1
2018-03-03T02:27:25.269Z,49.1
2018-03-03T02:28:15.866Z,49.1
2018-03-03T02:29:04.875Z,49.1
2018-03-03T02:29:54.762Z,49.1
2018-03-03T02:30:45.172Z,49.1
2018-03-03T02:31:35.559Z,49.1
2018-03-03T02:32:25.320Z,49.1
2018-03-03T02:33:15.937Z,49.1
2018-03-03T02:34:06.284Z,49.1
2018-03-03T02:34:56.618Z,49.1
2018-03-03T02:35:46.652Z,49.1
2018-03-03T02:36:36.447Z,49.1
2018-03-03T02:37:26.244Z,49.1
2018-03-03T02:38:16.309Z,49.1
2018-03-03T02:39:06.622Z,49.1
2018-03-03T02:39:56.644Z,49
2018-03-03T02:40:46.138Z,49.1
2018-03-03T02:41:36.804Z,49
2018-03-03T02:42:26.831Z,49
2018-03-03T02:43:16.899Z,49
2018-03-03T02:44:06.931Z,49
2018-03-03T02:44:57.278Z,49
2018-03-03T02:45:47.253Z,49
2018-03-03T02:46:36.829Z,49
2018-03-03T02:47:27.366Z,48.9
2018-03-03T02:48:17.276Z,48.9
2018-03-03T02:49:07.328Z,48.9
2018-03-03T02:49:57.395Z,48.9
2018-03-03T02:50:45.953Z,48.9
2018-03-03T02:51:37.182Z,48.9
2018-03-03T02:52:27.230Z,48.9
2018-03-03T02:53:16.181Z,48.9
2018-03-03T02:54:06.887Z,48.9
2018-03-03T02:54:56.532Z,48.9
2018-03-03T02:55:47.486Z,48.9
2018-03-03T02:56:37.045Z,48.9
2018-03-03T02:57:26.716Z,48.9
2018-03-03T02:58:17.217Z,48.9
2018-03-03T02:59:06.807Z,48.9
2018-03-03T02:59:56.581Z,48.9
2018-03-03T03:00:47.366Z,48.9
2018-03-03T03:01:37.378Z,48.9
2018-03-03T03:02:26.844Z,48.9
2018-03-03T03:03:17.690Z,48.9
2018-03-03T03:04:07.472Z,48.9
2018-03-03T03:04:58.217Z,48.8
2018-03-03T03:05:48.130Z,48.8
2018-03-03T03:06:37.629Z,48.8
2018-03-03T03:07:28.382Z,48.8
2018-03-03T03:08:17.823Z,48.8
2018-03-03T03:09:08.102Z,48.8
2018-03-03T03:09:57.164Z,48.8
2018-03-03T03:10:47.430Z,48.8
2018-03-03T03:11:38.149Z,48.8
2018-03-03T03:12:27.812Z,48.8
2018-03-03T03:13:17.594Z,48.8
2018-03-03T03:14:07.125Z,48.8
2018-03-03T03:14:58.689Z,48.8
2018-03-03T03:15:48.121Z,48.8
2018-03-03T03:16:37.566Z,48.8
2018-03-03T03:17:28.432Z,48.8
2018-03-03T03:18:18.974Z,48.8
2018-03-03T03:19:08.182Z,48.7
2018-03-03T03:19:59.251Z,48.7
2018-03-03T03:20:48.467Z,48.7
2018-03-03T03:21:38.925Z,48.7
2018-03-03T03:22:29.064Z,48.7
2018-03-03T03:23:19.201Z,48.7
2018-03-03T03:24:08.888Z,48.7
2018-03-03T03:24:59.142Z,48.7
2018-03-03T03:25:48.431Z,48.7
2018-03-03T03:26:39.204Z,48.6
2018-03-03T03:27:28.608Z,48.7
2018-03-03T03:28:18.994Z,48.6
2018-03-03T03:29:09.526Z,48.6
2018-03-03T03:29:58.899Z,48.6
2018-03-03T03:30:49.050Z,48.6
2018-03-03T03:31:39.612Z,48.6
2018-03-03T03:32:29.223Z,48.6
2018-03-03T03:33:19.221Z,48.6
2018-03-03T03:34:09.178Z,48.6
2018-03-03T03:34:59.800Z,48.6
2018-03-03T03:35:50.481Z,48.6
2018-03-03T03:36:39.340Z,48.6
2018-03-03T03:37:28.716Z,48.6
2018-03-03T03:38:19.794Z,48.6
2018-03-03T03:39:09.233Z,48.6
2018-03-03T03:39:59.161Z,48.6
2018-03-03T03:40:49.314Z,48.6
2018-03-03T03:41:40.851Z,48.5
2018-03-03T03:42:30.411Z,48.5
2018-03-03T03:43:19.573Z,48.5
2018-03-03T03:44:10.825Z,48.5
2018-03-03T03:45:00.563Z,48.5
2018-03-03T03:45:50.561Z,48.5
2018-03-03T03:46:40.411Z,48.5
2018-03-03T03:47:30.665Z,48.4
2018-03-03T03:48:21.575Z,48.5
2018-03-03T03:49:10.277Z,48.5
2018-03-03T03:50:00.511Z,48.5
2018-03-03T03:50:50.373Z,48.4
2018-03-03T03:51:40.452Z,48.4
2018-03-03T03:52:30.684Z,48.4
2018-03-03T03:53:20.580Z,48.4
2018-03-03T03:54:11.117Z,48.4
2018-03-03T03:55:01.159Z,48.4
2018-03-03T03:55:50.514Z,48.4
2018-03-03T03:56:41.242Z,48.4
2018-03-03T03:57:31.827Z,48.4
2018-03-03T03:58:21.915Z,48.4
2018-03-03T03:59:12.252Z,48.4
2018-03-03T04:00:01.462Z,48.4
2018-03-03T04:00:51.264Z,48.4
2018-03-03T04:01:42.419Z,48.4
2018-03-03T04:02:32.181Z,48.4
2018-03-03T04:03:22.199Z,48.4
2018-03-03T04:04:11.858Z,48.4
2018-03-03T04:05:02.103Z,48.3
2018-03-03T04:05:52.458Z,48.3
2018-03-03T04:06:41.767Z,48.3
2018-03-03T04:07:32.287Z,48.3
2018-03-03T04:08:22.123Z,48.3
2018-03-03T04:09:12.514Z,48.3
2018-03-03T04:10:01.390Z,48.3
2018-03-03T04:10:52.209Z,48.3
2018-03-03T04:11:42.557Z,48.3
2018-03-03T04:12:32.219Z,48.3
2018-03-03T04:13:21.794Z,48.3
2018-03-03T04:14:11.485Z,48.3
2018-03-03T04:15:02.533Z,48.3
2018-03-03T04:15:51.968Z,48.3
2018-03-03T04:16:42.027Z,48.3
2018-03-03T04:17:32.168Z,48.3
2018-03-03T04:18:22.829Z,48.3
2018-03-03T04:19:12.210Z,48.3
2018-03-03T04:20:02.057Z,48.2
2018-03-03T04:20:52.923Z,48.2
2018-03-03T04:21:42.742Z,48.2
2018-03-03T04:22:32.996Z,48.2
2018-03-03T04:23:23.642Z,48.2
2018-03-03T04:24:13.422Z,48.2
2018-03-03T04:25:03.072Z,48.2
2018-03-03T04:25:53.077Z,48.2
2018-03-03T04:26:43.653Z,48.1
2018-03-03T04:27:33.465Z,48.2
2018-03-03T04:28:22.420Z,48.1
2018-03-03T04:29:13.171Z,48.1
2018-03-03T04:30:03.119Z,48.1
2018-03-03T04:30:53.594Z,48.1
2018-03-03T04:31:43.632Z,48.1
2018-03-03T04:32:33.696Z,48.1
2018-03-03T04:33:24.076Z,48.1
2018-03-03T04:34:12.689Z,48.1
2018-03-03T04:35:04.168Z,48.1
2018-03-03T04:35:53.517Z,48.1
2018-03-03T04:36:43.604Z,48.1
2018-03-03T04:37:33.541Z,48.1
2018-03-03T04:38:23.480Z,48.1
2018-03-03T04:39:12.982Z,48.1
2018-03-03T04:40:03.916Z,48.1
2018-03-03T04:40:53.786Z,48
2018-03-03T04:41:43.803Z,48.1
2018-03-03T04:42:34.073Z,48
2018-03-03T04:43:24.280Z,48
2018-03-03T04:44:14.152Z,48
2018-03-03T04:45:04.810Z,48
2018-03-03T04:45:54.733Z,48
2018-03-03T04:46:44.610Z,48
2018-03-03T04:47:34.562Z,47.9
2018-03-03T04:48:24.277Z,48
2018-03-03T04:49:15.519Z,47.9
2018-03-03T04:50:05.190Z,47.9
2018-03-03T04:50:55.089Z,47.9
2018-03-03T04:51:45.283Z,47.9
2018-03-03T04:52:35.313Z,47.9
2018-03-03T04:53:25.926Z,47.9
2018-03-03T04:54:15.703Z,47.9
2018-03-03T04:55:05.737Z,47.9
2018-03-03T04:55:55.800Z,47.9
2018-03-03T04:56:45.137Z,47.9
2018-03-03T04:57:35.645Z,47.9
2018-03-03T04:58:24.635Z,47.9
2018-03-03T04:59:15.493Z,47.9
2018-03-03T05:00:05.046Z,47.9
2018-03-03T05:00:55.435Z,47.9
2018-03-03T05:01:45.743Z,47.8
2018-03-03T05:02:35.839Z,47.8
2018-03-03T05:03:25.079Z,47.8
2018-03-03T05:04:15.305Z,47.8
2018-03-03T05:05:05.678Z,47.8
2018-03-03T05:05:55.426Z,47.8
2018-03-03T05:06:45.774Z,47.8
2018-03-03T05:07:36.096Z,47.8
2018-03-03T05:08:25.866Z,47.8
2018-03-03T05:09:15.553Z,47.8
2018-03-03T05:10:05.915Z,47.8
2018-03-03T05:10:56.014Z,47.8
2018-03-03T05:11:45.532Z,47.8
2018-03-03T05:12:36.677Z,47.8
2018-03-03T05:13:26.494Z,47.8
2018-03-03T05:14:16.649Z,47.8
2018-03-03T05:15:05.875Z,47.8
2018-03-03T05:15:56.959Z,47.7
2018-03-03T05:16:45.689Z,47.7
2018-03-03T05:17:36.757Z,47.7
2018-03-03T05:18:25.400Z,47.7
2018-03-03T05:19:16.869Z,47.7
2018-03-03T05:20:06.760Z,47.7
2018-03-03T05:21:46.392Z,47.7
2018-03-03T05:22:37.008Z,47.7
2018-03-03T05:23:27.666Z,47.6
2018-03-03T05:24:16.628Z,47.6
2018-03-03T05:25:07.216Z,47.6
2018-03-03T05:25:56.211Z,47.6
2018-03-03T05:26:47.044Z,47.6
2018-03-03T05:27:36.997Z,47.6
2018-03-03T05:28:28.362Z,47.6
2018-03-03T05:29:16.149Z,47.6
2018-03-03T05:30:07.900Z,47.6
2018-03-03T05:30:58.054Z,47.6
2018-03-03T05:31:48.110Z,47.6
2018-03-03T05:32:37.321Z,47.5
2018-03-03T05:33:28.094Z,47.5
2018-03-03T05:34:17.378Z,47.5
2018-03-03T05:35:07.800Z,47.5
2018-03-03T05:35:57.075Z,47.5
2018-03-03T05:36:47.531Z,47.5
2018-03-03T05:37:37.972Z,47.5
2018-03-03T05:38:28.186Z,47.5
2018-03-03T05:39:17.311Z,47.5
2018-03-03T05:40:07.764Z,47.4
2018-03-03T05:40:58.863Z,47.4
2018-03-03T05:41:48.668Z,47.5
2018-03-03T05:42:38.660Z,47.4
2018-03-03T05:43:27.985Z,47.4
2018-03-03T05:44:17.833Z,47.4
2018-03-03T05:45:08.180Z,47.4
2018-03-03T05:45:58.625Z,47.4
2018-03-03T05:46:48.952Z,47.4
2018-03-03T05:47:39.051Z,47.4
2018-03-03T05:48:29.371Z,47.4
2018-03-03T05:49:18.475Z,47.4
2018-03-03T05:50:09.217Z,47.4
2018-03-03T05:50:58.747Z,47.4
2018-03-03T05:51:48.529Z,47.4
2018-03-03T05:52:39.144Z,47.4
2018-03-03T05:53:28.654Z,47.3
2018-03-03T05:54:19.184Z,47.3
2018-03-03T05:55:09.507Z,47.3
2018-03-03T05:55:59.132Z,47.3
2018-03-03T05:56:49.252Z,47.3
2018-03-03T05:57:39.373Z,47.3
2018-03-03T05:58:29.449Z,47.3
2018-03-03T05:59:19.612Z,47.3
2018-03-03T06:00:09.849Z,47.3
2018-03-03T06:00:59.344Z,47.3
2018-03-03T06:01:49.546Z,47.3
2018-03-03T06:02:40.325Z,47.3
2018-03-03T06:03:30.131Z,47.3
2018-03-03T06:04:20.482Z,47.2
2018-03-03T06:05:10.483Z,47.3
2018-03-03T06:06:00.541Z,47.2
2018-03-03T06:06:50.588Z,47.2
2018-03-03T06:07:40.634Z,47.2
2018-03-03T06:08:30.432Z,47.2
2018-03-03T06:09:20.736Z,47.2
2018-03-03T06:10:10.821Z,47.1
2018-03-03T06:11:00.876Z,47.1
2018-03-03T06:11:50.962Z,47.1
2018-03-03T06:12:40.993Z,47.1
2018-03-03T06:14:11.075Z,47.1
2018-03-03T06:14:24.612Z,47.1
2018-03-03T06:15:14.969Z,47.1
2018-03-03T06:16:05.556Z,47.1
2018-03-03T06:16:55.344Z,47.1
2018-03-03T06:17:45.677Z,47.1
2018-03-03T06:18:34.879Z,47.1
2018-03-03T06:19:25.802Z,47.1
2018-03-03T06:20:15.869Z,47
2018-03-03T06:21:05.895Z,47.1
2018-03-03T06:21:55.145Z,47
2018-03-03T06:22:45.459Z,47
2018-03-03T06:23:36.047Z,47
2018-03-03T06:24:24.706Z,47
2018-03-03T06:25:15.682Z,46.9
2018-03-03T06:26:05.952Z,46.9
2018-03-03T06:26:56.026Z,46.9
2018-03-03T06:27:46.106Z,46.9
2018-03-03T06:28:36.154Z,46.9
2018-03-03T06:29:25.907Z,46.8
2018-03-03T06:30:15.941Z,46.8
2018-03-03T06:31:06.063Z,46.8
2018-03-03T06:31:56.359Z,46.8
2018-03-03T06:32:46.513Z,46.8
2018-03-03T06:33:36.501Z,46.8
2018-03-03T06:34:26.265Z,46.8
2018-03-03T06:35:16.564Z,46.8
2018-03-03T06:36:06.936Z,46.7
2018-03-03T06:36:56.404Z,46.7
2018-03-03T06:37:46.185Z,46.7
2018-03-03T06:38:36.790Z,46.7
2018-03-03T06:39:27.159Z,46.7
2018-03-03T06:40:16.625Z,46.7
2018-03-03T06:41:07.242Z,46.7
2018-03-03T06:41:57.043Z,46.6
2018-03-03T06:42:47.343Z,46.6
2018-03-03T06:43:37.134Z,46.6
2018-03-03T06:44:27.463Z,46.6
2018-03-03T06:45:17.515Z,46.6
2018-03-03T06:46:07.350Z,46.6
2018-03-03T06:46:57.390Z,46.6
2018-03-03T06:47:47.228Z,46.6
2018-03-03T06:48:37.752Z,46.6
2018-03-03T06:49:27.575Z,46.6
2018-03-03T06:50:17.600Z,46.6
2018-03-03T06:51:07.630Z,46.6
2018-03-03T06:51:57.758Z,46.6
2018-03-03T06:52:48.022Z,46.6
2018-03-03T06:53:38.064Z,46.5
2018-03-03T06:54:27.874Z,46.5
2018-03-03T06:55:18.200Z,46.5
2018-03-03T06:56:08.226Z,46.5
2018-03-03T06:56:58.338Z,46.5
2018-03-03T06:57:48.092Z,46.5
2018-03-03T06:58:38.428Z,46.4
2018-03-03T06:59:28.189Z,46.5
2018-03-03T07:00:18.220Z,46.4
2018-03-03T07:01:07.665Z,46.4
2018-03-03T07:01:57.694Z,46.4
2018-03-03T07:02:47.291Z,46.4
2018-03-03T07:03:37.974Z,46.4
2018-03-03T07:04:28.244Z,46.4
2018-03-03T07:05:18.044Z,46.4
2018-03-03T07:06:07.244Z,46.4
2018-03-03T07:06:58.146Z,46.4
2018-03-03T07:07:48.422Z,46.4
2018-03-03T07:08:37.856Z,46.4
2018-03-03T07:09:28.092Z,46.4
2018-03-03T07:10:18.448Z,46.4
2018-03-03T07:11:08.040Z,46.3
2018-03-03T07:11:59.146Z,46.3
2018-03-03T07:12:49.120Z,46.3
2018-03-03T07:13:38.399Z,46.3
2018-03-03T07:14:29.241Z,46.3
2018-03-03T07:15:18.436Z,46.3
2018-03-03T07:16:08.672Z,46.3
2018-03-03T07:16:58.145Z,46.3
2018-03-03T07:17:48.686Z,46.3
2018-03-03T07:18:38.728Z,46.3
2018-03-03T07:19:29.282Z,46.3
2018-03-03T07:20:18.811Z,46.3
2018-03-03T07:21:09.393Z,46.3
2018-03-03T07:21:59.171Z,46.3
2018-03-03T07:22:48.415Z,46.2
2018-03-03T07:23:39.296Z,46.2
2018-03-03T07:24:29.061Z,46.2
2018-03-03T07:25:19.584Z,46.2
2018-03-03T07:26:09.148Z,46.2
2018-03-03T07:26:59.309Z,46.1
2018-03-03T07:27:49.985Z,46.1
2018-03-03T07:28:38.936Z,46.1
2018-03-03T07:29:28.621Z,46.1
2018-03-03T07:30:20.018Z,46.1
2018-03-03T07:31:09.889Z,46.1
2018-03-03T07:31:59.519Z,46.1
2018-03-03T07:32:49.823Z,46.1
2018-03-03T07:33:39.950Z,46.1
2018-03-03T07:34:29.532Z,46.1
2018-03-03T07:35:20.058Z,46.1
2018-03-03T07:36:09.528Z,46.1
2018-03-03T07:36:59.772Z,46.1
2018-03-03T07:37:49.137Z,46
2018-03-03T07:38:39.688Z,46
2018-03-03T07:39:30.095Z,46
2018-03-03T07:40:20.955Z,46
2018-03-03T07:41:09.780Z,46
2018-03-03T07:42:00.440Z,46
2018-03-03T07:42:50.705Z,46
2018-03-03T07:43:39.950Z,46
2018-03-03T07:44:30.678Z,45.9
2018-03-03T07:45:20.718Z,45.9
2018-03-03T07:46:09.891Z,45.9
2018-03-03T07:46:59.790Z,45.9
2018-03-03T07:47:50.736Z,45.9
2018-03-03T07:48:40.945Z,45.9
2018-03-03T07:49:31.880Z,45.9
2018-03-03T07:50:21.164Z,45.9
2018-03-03T07:51:10.826Z,45.9
2018-03-03T07:52:00.995Z,45.9
2018-03-03T07:52:50.748Z,45.9
2018-03-03T07:53:40.973Z,45.9
2018-03-03T07:54:31.312Z,45.8
2018-03-03T07:55:21.715Z,45.9
2018-03-03T07:56:11.576Z,45.8
2018-03-03T07:57:01.614Z,45.8
2018-03-03T07:57:51.598Z,45.8
2018-03-03T07:58:41.631Z,45.8
2018-03-03T07:59:31.672Z,45.8
2018-03-03T08:00:21.557Z,45.8
2018-03-03T08:01:12.111Z,45.8
2018-03-03T08:02:01.664Z,45.8
2018-03-03T08:02:52.009Z,45.8
2018-03-03T08:03:42.082Z,45.8
2018-03-03T08:04:31.739Z,45.8
2018-03-03T08:05:22.948Z,45.8
2018-03-03T08:06:12.137Z,45.7
2018-03-03T08:07:01.679Z,45.7
2018-03-03T08:07:52.264Z,45.7
2018-03-03T08:08:42.706Z,45.7
2018-03-03T08:09:32.150Z,45.7
2018-03-03T08:10:22.662Z,45.7
2018-03-03T08:11:12.547Z,45.6
2018-03-03T08:12:02.794Z,45.6
2018-03-03T08:12:53.300Z,45.6
2018-03-03T08:13:42.905Z,45.6
2018-03-03T08:14:32.974Z,45.6
2018-03-03T08:15:21.970Z,45.5
2018-03-03T08:16:13.386Z,45.5
2018-03-03T08:17:02.584Z,45.5
2018-03-03T08:17:52.653Z,45.5
2018-03-03T08:18:42.690Z,45.5
2018-03-03T08:19:33.316Z,45.4
2018-03-03T08:20:22.859Z,45.5
2018-03-03T08:21:12.988Z,45.4
2018-03-03T08:22:03.378Z,45.4
2018-03-03T08:22:52.653Z,45.4
2018-03-03T08:23:43.606Z,45.4
2018-03-03T08:24:32.888Z,45.4
2018-03-03T08:25:23.472Z,45.4
2018-03-03T08:26:14.078Z,45.4
2018-03-03T08:27:02.654Z,45.4
2018-03-03T08:27:53.779Z,45.3
2018-03-03T08:28:43.460Z,45.4
2018-03-03T08:29:33.686Z,45.4
2018-03-03T08:30:23.826Z,45.4
2018-03-03T08:31:13.904Z,45.3
2018-03-03T08:32:03.909Z,45.3
2018-03-03T08:32:53.656Z,45.3
2018-03-03T08:33:43.686Z,45.3
2018-03-03T08:34:34.347Z,45.3
2018-03-03T08:35:23.202Z,45.3
2018-03-03T08:36:14.232Z,45.3
2018-03-03T08:37:04.117Z,45.3
2018-03-03T08:37:54.154Z,45.3
2018-03-03T08:38:44.034Z,45.3
2018-03-03T08:39:34.253Z,45.2
2018-03-03T08:40:24.208Z,45.2
2018-03-03T08:41:15.336Z,45.2
2018-03-03T08:42:04.796Z,45.2
2018-03-03T08:42:55.456Z,45.2
2018-03-03T08:43:45.496Z,45.2
2018-03-03T08:44:34.954Z,45.2
2018-03-03T08:45:25.313Z,45.1
2018-03-03T08:46:15.081Z,45.1
2018-03-03T08:47:05.415Z,45.2
2018-03-03T08:47:55.781Z,45.1
2018-03-03T08:48:45.532Z,45.1
2018-03-03T08:49:34.768Z,45.1
2018-03-03T08:50:24.611Z,45.1
2018-03-03T08:51:15.179Z,45.1
2018-03-03T08:52:04.537Z,45.1
2018-03-03T08:52:55.079Z,45.1
2018-03-03T08:53:45.322Z,45.1
2018-03-03T08:54:35.102Z,45.1
2018-03-03T08:55:26.016Z,45.1
2018-03-03T08:56:15.322Z,45.1
2018-03-03T08:57:05.362Z,45.1
2018-03-03T08:57:55.111Z,45
2018-03-03T08:58:46.003Z,45
2018-03-03T08:59:35.238Z,45
2018-03-03T09:00:26.070Z,45
2018-03-03T09:01:16.053Z,45
2018-03-03T09:02:05.640Z,45
2018-03-03T09:02:55.867Z,45
2018-03-03T09:03:45.046Z,44.9
2018-03-03T09:04:35.741Z,44.9
2018-03-03T09:05:25.907Z,44.9
2018-03-03T09:06:17.139Z,44.9
2018-03-03T09:07:06.335Z,44.9
2018-03-03T09:07:55.930Z,44.9
2018-03-03T09:08:45.765Z,44.9
2018-03-03T09:09:36.199Z,44.9
2018-03-03T09:10:26.573Z,44.9
2018-03-03T09:11:16.237Z,44.9
2018-03-03T09:12:05.695Z,44.9
2018-03-03T09:12:56.655Z,44.9
2018-03-03T09:13:46.105Z,44.9
2018-03-03T09:14:36.406Z,44.8
2018-03-03T09:15:27.043Z,44.8
2018-03-03T09:16:16.936Z,44.8
2018-03-03T09:17:06.272Z,44.8
2018-03-03T09:17:56.708Z,44.8
2018-03-03T09:18:46.904Z,44.8
2018-03-03T09:19:37.105Z,44.8
2018-03-03T09:20:27.162Z,44.8
2018-03-03T09:21:17.113Z,44.8
2018-03-03T09:22:06.987Z,44.8
2018-03-03T09:22:57.664Z,44.8
2018-03-03T09:23:47.231Z,44.8
2018-03-03T09:24:38.029Z,44.7
2018-03-03T09:25:26.824Z,44.8
2018-03-03T09:26:16.517Z,44.8
2018-03-03T09:27:07.061Z,44.7
2018-03-03T09:27:57.603Z,44.7
2018-03-03T09:28:47.351Z,44.7
2018-03-03T09:29:37.612Z,44.7
2018-03-03T09:30:28.213Z,44.6
2018-03-03T09:31:17.455Z,44.7
2018-03-03T09:32:08.067Z,44.6
2018-03-03T09:32:57.351Z,44.6
2018-03-03T09:33:47.619Z,44.6
2018-03-03T09:34:38.714Z,44.6
2018-03-03T09:35:27.924Z,44.6
2018-03-03T09:36:18.805Z,44.6
2018-03-03T09:37:07.854Z,44.6
2018-03-03T09:37:58.553Z,44.6
2018-03-03T09:38:47.850Z,44.6
2018-03-03T09:39:38.636Z,44.6
2018-03-03T09:40:29.008Z,44.5
2018-03-03T09:41:18.849Z,44.5
2018-03-03T09:42:08.508Z,44.4
2018-03-03T09:42:58.438Z,44.4
2018-03-03T09:43:49.018Z,44.3
2018-03-03T09:44:38.790Z,44.3
2018-03-03T09:45:28.862Z,44.2
2018-03-03T09:46:18.571Z,44.2
2018-03-03T09:47:08.667Z,44.1
2018-03-03T09:47:58.597Z,44.1
2018-03-03T09:48:48.645Z,44.1
2018-03-03T09:49:38.245Z,44.1
2018-03-03T09:50:28.080Z,44.2
2018-03-03T09:51:19.509Z,44.2
2018-03-03T09:52:08.908Z,44.3
2018-03-03T09:52:59.040Z,44.3
2018-03-03T09:53:49.333Z,44.4
2018-03-03T09:54:39.109Z,44.4
2018-03-03T09:55:29.927Z,44.5
2018-03-03T09:56:18.737Z,44.6
2018-03-03T09:57:09.161Z,44.6
2018-03-03T09:58:00.075Z,44.8
2018-03-03T09:58:50.295Z,44.8
2018-03-03T09:59:40.026Z,44.9
2018-03-03T10:00:29.689Z,44.9
2018-03-03T10:01:19.942Z,45.1
2018-03-03T10:02:10.558Z,45.1
2018-03-03T10:02:59.867Z,45.3
2018-03-03T10:03:49.705Z,45.3
2018-03-03T10:04:39.934Z,45.4
2018-03-03T10:05:29.779Z,45.5
2018-03-03T10:06:20.655Z,45.6
2018-03-03T10:07:09.741Z,45.7
2018-03-03T10:08:00.780Z,45.8
2018-03-03T10:08:49.866Z,45.9
2018-03-03T10:09:40.689Z,45.9
2018-03-03T10:10:30.948Z,46
2018-03-03T10:11:20.705Z,46.1
2018-03-03T10:12:11.067Z,46.2
2018-03-03T10:13:00.838Z,46.3
2018-03-03T10:13:49.912Z,46.3
2018-03-03T10:14:40.749Z,46.4
2018-03-03T10:15:31.379Z,46.4
2018-03-03T10:16:20.455Z,46.6
2018-03-03T10:17:11.093Z,46.6
2018-03-03T10:18:00.772Z,46.6
2018-03-03T10:18:50.559Z,46.7
2018-03-03T10:19:41.312Z,46.7
2018-03-03T10:20:30.889Z,46.8
2018-03-03T10:21:21.146Z,46.8
2018-03-03T10:22:10.859Z,46.9
2018-03-03T10:23:01.524Z,47
2018-03-03T10:23:50.679Z,47
2018-03-03T10:24:41.723Z,47.1
2018-03-03T10:25:31.223Z,47.1
2018-03-03T10:26:22.798Z,47.2
2018-03-03T10:27:12.113Z,47.3
2018-03-03T10:28:01.946Z,47.3
2018-03-03T10:28:51.235Z,47.4
2018-03-03T10:29:41.440Z,47.4
2018-03-03T10:30:32.361Z,47.4
2018-03-03T10:31:21.916Z,47.5
2018-03-03T10:32:11.861Z,47.6
2018-03-03T10:33:02.815Z,47.6
2018-03-03T10:33:52.093Z,47.6
2018-03-03T10:34:41.763Z,47.6
2018-03-03T10:35:32.704Z,47.6
2018-03-03T10:36:22.429Z,47.7
2018-03-03T10:37:13.121Z,47.8
2018-03-03T10:38:02.082Z,47.8
2018-03-03T10:38:52.316Z,47.9
2018-03-03T10:39:42.707Z,47.9
2018-03-03T10:40:32.264Z,48
2018-03-03T10:41:22.523Z,48.1
2018-03-03T10:42:12.445Z,48.1
2018-03-03T10:43:03.210Z,48.1
2018-03-03T10:43:53.080Z,48.1
2018-03-03T10:44:42.755Z,48.2
2018-03-03T10:45:32.618Z,48.2
2018-03-03T10:46:22.961Z,48.3
2018-03-03T10:47:13.307Z,48.4
2018-03-03T10:48:03.005Z,48.4
2018-03-03T10:48:52.950Z,48.5
2018-03-03T10:49:44.101Z,48.6
2018-03-03T10:50:33.148Z,48.6
2018-03-03T10:51:23.081Z,48.7
2018-03-03T10:52:12.767Z,48.8
2018-03-03T10:53:04.508Z,48.8
2018-03-03T10:53:54.035Z,48.9
2018-03-03T10:54:43.427Z,48.9
2018-03-03T10:55:34.072Z,49.1
2018-03-03T10:56:24.109Z,49.1
2018-03-03T10:57:14.019Z,49.2
2018-03-03T10:58:03.571Z,49.3
2018-03-03T10:58:53.033Z,49.3
2018-03-03T10:59:44.369Z,49.4
2018-03-03T11:00:33.389Z,49.5
2018-03-03T11:01:23.799Z,49.6
2018-03-03T11:02:12.391Z,49.6
2018-03-03T11:03:04.494Z,49.8
2018-03-03T11:03:54.431Z,49.8
2018-03-03T11:04:43.662Z,49.9
2018-03-03T11:05:33.531Z,50
2018-03-03T11:06:24.961Z,50.1
2018-03-03T11:07:14.619Z,50.2
2018-03-03T11:08:05.612Z,50.3
2018-03-03T11:08:54.166Z,50.3
2018-03-03T11:09:45.352Z,50.4